Latest Weather Observations for Mudgee

IDN60801

Issued at 3:05 pm EDT Wednesday 28 January 2015 (issued every 30 minutes, with the page automatically refreshed every 10 minutes)

About weather observations | Map of weather stations | Latest weather observations for NSW | Other Formats
Station Details ID: 062101 Name: MUDGEE AIRPORT AWS Lat: -32.56 Lon: 149.61 Height: 471.0 m
Data from the previous 72 hours. | See also: Recent months at Mudgee
Date/Time
EDT
Temp
°C
App
Temp
°C
Dew
Point
Rel
Hum
%
Delta-T
°C
Wind Press
QNH
hPa
Press
MSL
hPa
Rain
since 9 am
mm
Dir
 
Spd
km/h
Gust
km/h
Spd
kts
Gust
kts
28/03:00pm 18.5 15.5 12.7 69 3.3 ESE 20 24 11 13 1013.2 - -
28/02:30pm 19.5 16.1 12.5 64 4.0 SE 22 32 12 17 1013.3 1010.8 0.0
28/02:00pm 20.0 15.8 12.3 61 4.4 SE 26 39 14 21 1013.3 1010.8 0.0
28/01:38pm 19.8 15.2 12.3 62 4.3 SE 28 46 15 25 1013.4 1010.9 0.0
28/01:30pm 19.7 16.2 12.2 62 4.3 SE 22 46 12 25 1013.4 1010.9 0.0
28/01:00pm 20.0 16.4 13.0 64 4.1 ESE 24 35 13 19 1013.4 1010.9 0.0
28/12:30pm 19.7 16.2 13.4 67 3.7 SE 24 39 13 21 1013.4 1010.9 0.0
28/12:00pm 19.5 16.7 13.2 67 3.7 ESE 20 30 11 16 1013.5 1011.0 0.0
28/11:45am 19.3 16.6 13.0 67 3.6 ESE 19 30 10 16 1013.6 1011.1 0.0
28/11:30am 19.1 16.6 13.5 70 3.3 SE 19 32 10 17 1013.7 1011.2 0.0
28/11:00am 18.5 16.0 13.6 73 2.9 SE 19 32 10 17 1013.8 1011.3 0.0
28/10:30am 18.3 15.7 13.2 72 2.9 ESE 19 33 10 18 1013.5 1011.0 0.0
28/10:00am 18.6 16.5 13.7 73 2.9 SE 17 26 9 14 1013.3 1010.8 0.0
28/09:30am 18.5 15.3 13.1 71 3.1 SE 22 35 12 19 1013.2 1010.7 0.0
28/09:00am 18.1 15.0 13.4 74 2.7 SE 22 35 12 19 1013.0 1010.4 11.8
28/08:31am 17.5 14.9 13.2 76 2.5 SE 19 32 10 17 1012.9 1010.3 11.8
28/08:30am 17.5 15.0 13.4 77 2.4 SE 19 30 10 16 1012.8 1010.2 11.8
28/08:00am 17.1 13.9 13.0 77 2.3 ESE 22 33 12 18 1012.3 1009.8 11.8
28/07:30am 17.3 14.4 12.8 75 2.6 ESE 20 30 11 16 1011.9 1009.4 11.8
28/07:00am 17.1 14.8 13.0 77 2.3 SE 17 26 9 14 1011.5 1009.0 11.8
28/06:30am 17.2 15.8 13.5 79 2.1 SSE 13 24 7 13 1011.4 1008.9 11.8
28/06:00am 16.6 16.4 13.7 83 1.7 SE 7 11 4 6 1011.0 1008.4 11.8
28/05:30am 16.8 15.4 13.3 80 2.0 SSE 13 19 7 10 1010.8 1008.2 11.8
28/05:00am 17.1 15.3 13.2 78 2.2 SE 15 22 8 12 1010.6 1008.0 11.8
28/04:30am 17.2 15.3 13.1 77 2.3 SE 15 30 8 16 1010.2 1007.7 11.8
28/04:00am 17.3 16.0 13.6 79 2.1 SE 13 20 7 11 1010.4 1007.8 11.8
28/03:30am 16.9 15.7 14.0 83 1.7 SE 13 20 7 11 1010.6 1008.0 11.8
28/03:00am 17.0 15.3 13.7 81 1.9 SE 15 24 8 13 1010.8 1008.2 11.8
28/02:30am 17.0 15.7 13.7 81 1.9 SE 13 20 7 11 1011.0 1008.4 11.8
28/02:00am 17.2 15.1 13.7 80 2.0 SE 17 30 9 16 1011.0 1008.4 11.8
28/01:30am 17.2 15.0 13.3 78 2.2 SE 17 28 9 15 1011.3 1008.8 11.8
28/01:00am 17.1 14.4 13.0 77 2.3 SE 19 28 10 15 1011.5 1009.0 11.8
28/12:30am 17.3 14.9 12.8 75 2.6 SE 17 32 9 17 1011.5 1009.0 11.8
28/12:00am 17.1 14.3 12.6 75 2.6 SE 19 32 10 17 1011.6 1009.1 11.8
 
Date/Time
EDT
Temp
°C
App
Temp
°C
Dew
Point
Rel
Hum
%
Delta-T
°C
Wind Press
QNH
hPa
Press
MSL
hPa
Rain
since 9 am
mm
Dir
 
Spd
km/h
Gust
km/h
Spd
kts
Gust
kts
27/11:30pm 17.5 14.8 13.0 75 2.6 ESE 19 28 10 15 1011.6 1009.1 11.8
27/11:00pm 17.7 15.2 14.0 79 2.2 SE 20 32 11 17 1011.5 1009.0 11.8
27/10:30pm 17.9 15.8 14.6 81 1.9 SE 19 32 10 17 1011.6 1009.1 11.8
27/10:00pm 18.0 17.1 14.9 82 1.8 ESE 13 20 7 11 1011.6 1009.1 11.8
27/09:41pm 18.0 18.1 15.4 85 1.6 ESE 9 13 5 7 1011.6 1009.1 11.8
27/09:30pm 17.9 17.6 15.5 86 1.4 ESE 11 17 6 9 1011.6 1009.1 11.8
27/09:00pm 17.8 16.8 15.6 87 1.3 ENE 15 20 8 11 1011.1 1008.5 11.8
27/08:40pm 19.1 17.4 14.6 75 2.7 SE 17 28 9 15 1010.8 1008.2 11.8
27/08:30pm 19.1 18.2 14.8 76 2.6 SE 13 22 7 12 1010.8 1008.2 11.8
27/08:00pm 19.5 18.2 14.7 74 2.9 ESE 15 20 8 11 1010.8 1008.2 11.8
27/07:30pm 19.7 18.4 14.7 73 3.0 ESE 15 24 8 13 1010.8 1008.2 11.8
27/07:24pm 19.8 18.9 14.8 73 3.0 E 13 24 7 13 1010.9 1008.3 11.8
27/07:00pm 19.9 19.2 15.3 75 2.8 E 13 19 7 10 1010.4 1007.8 11.8
27/06:30pm 19.8 19.1 15.4 76 2.7 ESE 13 22 7 12 1010.2 1007.7 11.8
27/06:00pm 20.2 19.6 15.6 75 2.8 SE 13 24 7 13 1010.3 1007.8 11.8
27/05:30pm 20.4 19.6 16.0 76 2.7 SE 15 22 8 12 1010.5 1007.9 11.8
27/05:00pm 19.9 19.1 16.0 78 2.4 SE 15 22 8 12 1010.4 1007.8 11.8
27/04:30pm 20.2 19.7 15.8 76 2.7 ESE 13 20 7 11 1009.6 1007.1 11.8
27/04:00pm 19.8 18.5 15.7 77 2.5 SE 17 30 9 16 1010.2 1007.7 11.8
27/03:30pm 19.7 17.2 16.2 80 2.1 SE 24 35 13 19 1010.2 1007.7 11.8
27/03:00pm 19.6 17.0 16.8 84 1.7 SE 26 37 14 20 1010.7 1008.1 11.8
27/02:30pm 18.8 17.4 16.9 89 1.2 SE 20 35 11 19 1011.4 1008.9 11.8
27/02:00pm 17.7 17.4 17.4 98 0.2 ESE 15 24 8 13 1011.8 1009.3 11.8
27/01:36pm 17.9 17.3 17.6 98 0.2 SE 17 28 9 15 1012.2 1009.7 11.0
27/01:30pm 17.8 16.6 17.5 98 0.2 SE 20 37 11 20 1012.2 1009.7 11.0
27/01:00pm 17.8 19.1 17.6 99 0.1 S 7 15 4 8 1013.0 1010.4 10.6
27/12:43pm 17.6 18.1 17.4 99 0.1 SSW 11 22 6 12 1012.9 1010.3 10.6
27/12:36pm 17.6 16.9 17.3 98 0.2 SE 17 24 9 13 1012.5 1010.0 10.6
27/12:30pm 17.7 16.5 17.4 98 0.2 SSE 20 28 11 15 1012.5 1010.0 9.4
27/12:00pm 18.8 18.7 16.9 89 1.2 SSE 13 20 7 11 1011.5 1009.0 0.0
27/11:30am 20.4 19.0 15.6 74 2.9 SE 17 28 9 15 1011.9 1009.4 0.0
27/11:00am 20.3 19.0 15.7 75 2.8 SSE 17 24 9 13 1012.0 1009.5 0.0
27/10:30am 20.0 18.7 15.8 77 2.6 SE 17 28 9 15 1012.1 1009.6 0.0
27/10:00am 20.8 20.0 16.2 75 2.8 SE 15 22 8 12 1012.1 1009.6 0.0
27/09:30am 18.9 17.9 16.5 86 1.5 SSE 17 20 9 11 1012.7 1010.1 0.0
27/09:00am 18.9 17.8 16.3 85 1.6 S 17 20 9 11 1012.9 1010.3 0.0
27/08:30am 18.7 18.0 16.3 86 1.5 SSW 15 19 8 10 1012.7 1010.1 0.0
27/08:00am 18.6 18.1 16.0 85 1.6 SSE 13 19 7 10 1012.3 1009.8 0.0
27/07:30am 19.3 19.4 15.6 79 2.2 SE 9 13 5 7 1012.0 1009.5 0.0
27/07:00am 18.9 18.2 15.4 80 2.1 SE 13 19 7 10 1011.7 1009.2 0.0
27/06:30am 18.7 17.6 15.2 80 2.1 SE 15 26 8 14 1011.5 1009.0 0.0
27/06:00am 18.9 18.8 15.0 78 2.3 SE 9 17 5 9 1011.3 1008.8 0.0
27/05:50am 19.0 19.3 14.9 77 2.4 SE 7 11 4 6 1011.3 1008.8 0.0
27/05:30am 18.9 18.0 14.8 77 2.4 SE 13 19 7 10 1011.1 1008.5 0.0
27/05:00am 18.6 18.0 14.7 78 2.3 SE 11 17 6 9 1010.9 1008.3 0.0
27/04:30am 18.8 16.6 14.5 76 2.5 SE 19 30 10 16 1011.1 1008.5 0.0
27/04:00am 19.0 17.2 14.5 75 2.7 SE 17 26 9 14 1011.4 1008.9 0.0
27/03:30am 19.0 18.0 14.7 76 2.6 SE 13 20 7 11 1011.7 1009.2 0.0
27/03:00am 18.7 18.2 14.8 78 2.3 SSE 11 15 6 8 1011.9 1009.4 0.0
27/02:30am 18.9 18.3 14.6 76 2.5 SE 11 20 6 11 1012.1 1009.6 0.0
27/02:00am 18.9 17.5 14.4 75 2.7 SE 15 22 8 12 1012.7 1010.1 0.0
27/01:30am 18.9 17.5 14.4 75 2.7 SE 15 22 8 12 1012.7 1010.1 0.0
27/01:00am 19.0 17.5 14.3 74 2.8 SE 15 22 8 12 1012.9 1010.3 0.0
27/12:30am 19.0 17.5 14.3 74 2.8 SE 15 24 8 13 1013.1 1010.6 0.0
27/12:00am 19.2 17.3 14.2 73 2.9 SE 17 28 9 15 1013.4 1010.9 0.0
 
Date/Time
EDT
Temp
°C
App
Temp
°C
Dew
Point
Rel
Hum
%
Delta-T
°C
Wind Press
QNH
hPa
Press
MSL
hPa
Rain
since 9 am
mm
Dir
 
Spd
km/h
Gust
km/h
Spd
kts
Gust
kts
26/11:30pm 19.1 16.8 14.1 73 2.9 SE 19 32 10 17 1013.4 1010.9 0.0
26/11:00pm 19.1 16.6 14.1 73 2.9 SE 20 33 11 18 1013.5 1011.0 0.0
26/10:30pm 19.3 17.1 14.3 73 3.0 SE 19 33 10 18 1013.5 1011.0 0.0
26/10:00pm 19.6 17.4 14.4 72 3.1 SE 19 28 10 15 1013.3 1010.8 0.0
26/09:30pm 19.6 17.4 14.4 72 3.1 SE 19 33 10 18 1013.3 1010.8 0.0
26/09:00pm 19.7 17.3 14.5 72 3.1 SE 20 30 11 16 1013.2 1010.7 0.0
26/08:30pm 20.2 18.1 14.6 70 3.3 SE 19 30 10 16 1013.1 1010.6 0.0
26/08:00pm 20.7 18.4 14.6 68 3.6 SE 20 28 11 15 1012.4 1009.9 0.0
26/07:30pm 21.3 19.1 14.9 67 3.9 SE 20 32 11 17 1011.8 1009.3 0.0
26/07:00pm 21.6 19.4 15.0 66 4.0 SE 20 30 11 16 1011.4 1008.9 0.0
26/06:30pm 22.0 19.9 15.1 65 4.2 SE 20 28 11 15 1011.2 1008.7 0.0
26/06:00pm 22.6 20.6 15.4 64 4.4 SE 20 33 11 18 1011.1 1008.5 0.0
26/05:30pm 22.5 19.2 15.1 63 4.5 SE 26 39 14 21 1010.9 1008.3 0.0
26/05:00pm 23.5 21.1 15.5 60 4.9 ESE 22 33 12 18 1011.0 1008.4 0.0
26/04:30pm 24.5 23.0 16.2 60 5.2 SE 19 32 10 17 1011.0 1008.4 0.0
26/04:00pm 23.5 20.8 15.5 60 4.9 SE 24 35 13 19 1011.0 1008.4 0.0
26/03:30pm 24.3 22.7 16.0 60 5.1 SE 19 33 10 18 1011.3 1008.8 0.0
26/03:00pm 23.4 21.1 15.7 62 4.7 SSE 22 35 12 19 1011.4 1008.9 0.0
26/02:30pm 23.0 20.1 16.1 65 4.3 SSE 26 35 14 19 1011.6 1009.1 0.0
26/02:00pm 22.9 21.2 15.7 64 4.4 SSE 19 30 10 16 1011.7 1009.2 0.0
26/01:30pm 23.1 22.7 16.2 65 4.3 SE 13 19 7 10 1011.8 1009.3 0.0
26/01:00pm 22.5 20.8 15.8 66 4.1 SSE 19 26 10 14 1012.1 1009.6 0.0
26/12:30pm 22.3 20.7 16.1 68 3.8 SE 19 32 10 17 1012.1 1009.6 0.0
26/12:00pm 22.4 20.9 16.2 68 3.8 SE 19 24 10 13 1012.2 1009.7 0.0
26/11:30am 22.2 20.3 15.8 67 3.9 SE 20 28 11 15 1012.3 1009.8 0.0
26/11:00am 22.3 20.7 15.9 67 3.9 SE 19 30 10 16 1012.3 1009.8 0.0
26/10:40am 22.4 21.2 16.2 68 3.8 SE 17 24 9 13 1012.4 1009.9 0.0
26/10:30am 22.0 21.2 16.1 69 3.6 SSE 15 20 8 11 1012.5 1010.0 0.0
26/10:00am 21.5 20.3 16.0 71 3.4 SSE 17 24 9 13 1012.5 1010.0 0.0
26/09:30am 21.4 19.6 16.1 72 3.3 SSE 20 28 11 15 1012.2 1009.7 0.0
26/09:00am 21.2 19.6 16.0 72 3.2 SE 19 28 10 15 1012.3 1009.8 0.0
26/08:30am 21.1 19.5 16.1 73 3.1 SE 19 30 10 16 1012.2 1009.7 0.0
26/08:00am 21.1 20.5 16.7 76 2.7 SSE 15 22 8 12 1012.0 1009.5 0.0
26/07:30am 20.1 19.1 16.5 80 2.2 S 17 20 9 11 1011.9 1009.4 0.0
26/07:04am 19.1 19.1 16.3 84 1.7 SSE 11 15 6 8 1011.5 1009.0 0.0
26/07:00am 19.0 19.0 16.2 84 1.7 SSE 11 17 6 9 1011.4 1008.9 0.0
26/06:30am 18.6 17.3 15.8 84 1.7 SSE 17 20 9 11 1011.1 1008.5 0.0
26/06:00am 19.0 19.2 15.7 81 2.0 SSE 9 13 5 7 1010.9 1008.3 0.0
26/05:30am 19.1 19.3 15.8 81 2.0 SSE 9 13 5 7 1010.9 1008.3 0.0
26/05:00am 18.4 18.6 14.3 77 2.4 SE 6 11 3 6 1010.7 1008.1 0.0
26/04:30am 18.2 17.2 12.4 69 3.3 S 9 11 5 6 1010.5 1007.9 0.0
26/04:00am 18.1 17.2 13.8 76 2.5 SSE 11 17 6 9 1010.1 1007.6 0.0
26/03:30am 17.8 16.1 12.5 71 3.0 SSE 13 19 7 10 1009.7 1007.2 0.0
26/03:00am 16.3 15.4 11.2 72 2.8 SW 7 9 4 5 1009.6 1007.1 0.0
26/02:30am 17.3 14.5 11.3 68 3.3 NE 17 32 9 17 1009.5 1007.0 0.0
26/02:00am 16.4 16.3 10.9 70 3.0 NE 2 7 1 4 1009.5 1007.0 0.0
26/01:30am 17.6 16.6 10.9 65 3.7 NE 7 15 4 8 1009.7 1007.2 0.0
26/01:00am 17.8 16.5 11.1 65 3.7 NNE 9 13 5 7 1009.8 1007.3 0.0
26/12:30am 18.5 17.2 10.1 58 4.6 NE 7 11 4 6 1009.8 1007.3 0.0
26/12:29am 18.5 17.2 10.1 58 4.6 NE 7 11 4 6 1009.7 1007.2 0.0
26/12:00am 23.5 22.1 9.5 41 7.8 SSE 7 11 4 6 1009.7 1007.2 0.0
 
Date/Time
EDT
Temp
°C
App
Temp
°C
Dew
Point
Rel
Hum
%
Delta-T
°C
Wind Press
QNH
hPa
Press
MSL
hPa
Rain
since 9 am
mm
Dir
 
Spd
km/h
Gust
km/h
Spd
kts
Gust
kts
25/11:30pm 23.8 21.6 9.4 40 8.0 S 11 15 6 8 1009.7 1007.2 0.0
25/11:00pm 23.9 22.6 9.9 41 7.8 S 7 13 4 7 1009.6 1007.1 0.0
25/10:30pm 24.4 22.8 10.3 41 8.0 SSE 9 13 5 7 1009.6 1007.1 0.0
25/10:00pm 25.0 22.7 10.5 40 8.3 S 13 19 7 10 1009.3 1006.8 0.0
25/09:30pm 25.3 22.6 10.4 39 8.5 SSW 15 19 8 10 1008.9 1006.3 0.0
25/09:00pm 26.4 23.7 10.5 37 9.1 SSW 15 19 8 10 1008.5 1005.9 0.0
25/08:30pm 27.3 24.3 10.5 35 9.7 SW 17 22 9 12 1007.8 1005.3 0.0
25/08:00pm 28.3 24.7 10.5 33 10.3 SSW 20 26 11 14 1007.5 1005.0 0.0
25/07:30pm 29.6 26.4 11.2 32 10.8 SW 19 26 10 14 1007.1 1004.5 0.0
25/07:00pm 31.0 27.8 11.4 30 11.6 WSW 19 24 10 13 1006.7 1004.1 0.0
25/06:30pm 31.6 27.6 11.9 30 11.8 WSW 24 33 13 18 1006.3 1003.7 0.0
25/06:00pm 32.1 27.9 12.3 29 12.0 WSW 26 33 14 18 1005.9 1003.3 0.0
25/05:30pm 32.6 27.9 14.2 32 11.4 W 32 46 17 25 1005.6 1003.1 0.0
25/05:24pm 31.8 27.5 13.1 32 11.4 WNW 28 46 15 25 1005.6 1003.1 0.0
25/05:00pm 32.0 30.3 16.3 39 10.1 NW 20 30 11 16 1005.6 1003.1 0.0
25/04:30pm 31.0 28.5 16.2 41 9.4 WNW 24 32 13 17 1005.6 1003.1 0.0
25/04:00pm 31.7 30.3 15.6 37 10.2 W 17 30 9 16 1005.7 1003.2 0.0
25/03:30pm 30.5 29.5 16.5 43 8.9 WSW 17 24 9 13 1006.1 1003.5 0.0

Other Formats:

Comma delimited format used in spreadsheet applications
http://www.bom.gov.au/fwo/IDN60801/IDN60801.94727.axf

JavaScript Object Notation format (JSON) in row-major order
http://www.bom.gov.au/fwo/IDN60801/IDN60801.94727.json